Time;durP1;ratioP1;P1;durP2;ratioP2;P2;SDS_P1;SDS_P2;PMS_P1;PMS_P2;Temp;Humidity;BMP_temperature;BMP_pressure;BME280_temperature;BME280_humidity;BME280_pressure;Samples;Min_cycle;Max_cycle;Signal;HPM_P1;HPM_P2
2023/12/30 00:01:35;;;;;;;2.50;2.30;;;;;;;9.61;100.00;100159.78;5045511;28;20221;-77
2023/12/30 00:04:00;;;;;;;3.33;2.40;;;;;;;9.60;100.00;100168.38;5054168;28;20191;-76
2023/12/30 00:06:25;;;;;;;3.30;2.73;;;;;;;9.67;100.00;100173.53;5052902;28;20194;-77
2023/12/30 00:08:51;;;;;;;3.73;2.67;;;;;;;9.70;100.00;100173.47;5045246;28;20191;-76
2023/12/30 00:11:16;;;;;;;3.37;2.30;;;;;;;9.70;100.00;100181.22;5049904;28;20581;-77
2023/12/30 00:13:41;;;;;;;2.60;2.27;;;;;;;9.75;100.00;100163.97;5048567;28;20192;-77
2023/12/30 00:16:07;;;;;;;3.30;2.20;;;;;;;9.70;100.00;100181.22;5046325;28;20218;-77
2023/12/30 00:18:32;;;;;;;2.90;2.47;;;;;;;9.69;100.00;100188.16;5050640;28;20183;-77
2023/12/30 00:20:58;;;;;;;3.40;2.40;;;;;;;9.65;100.00;100189.03;5051815;28;20191;-77
2023/12/30 00:23:23;;;;;;;2.90;2.30;;;;;;;9.66;100.00;100188.16;5048637;28;20571;-76
2023/12/30 00:25:53;;;;;;;3.03;2.50;;;;;;;9.66;100.00;100190.75;5049789;28;20674;-77
2023/12/30 00:28:18;;;;;;;2.40;2.20;;;;;;;9.61;100.00;100184.75;5055280;28;20182;-76
2023/12/30 00:30:44;;;;;;;3.57;2.83;;;;;;;9.58;100.00;100188.22;5051276;28;20606;-77
2023/12/30 00:33:09;;;;;;;2.87;2.60;;;;;;;9.56;100.00;100191.69;5049033;28;20239;-77
2023/12/30 00:35:35;;;;;;;4.23;2.90;;;;;;;9.56;100.00;100205.44;5045934;28;20319;-77
2023/12/30 00:38:00;;;;;;;3.07;2.70;;;;;;;9.51;100.00;100206.34;5049564;28;20225;-77
2023/12/30 00:40:25;;;;;;;4.43;2.77;;;;;;;9.52;100.00;100202.88;5050793;28;20267;-77
2023/12/30 00:42:50;;;;;;;3.07;2.77;;;;;;;9.50;100.00;100204.63;5051276;28;20213;-78
2023/12/30 00:45:16;;;;;;;2.77;2.57;;;;;;;9.51;100.00;100204.63;5043779;28;20293;-77
2023/12/30 00:47:41;;;;;;;3.03;2.73;;;;;;;9.45;100.00;100205.50;5049385;28;20244;-77
2023/12/30 00:50:06;;;;;;;3.10;2.83;;;;;;;9.41;100.00;100213.28;5049028;28;21997;-77
2023/12/30 00:52:33;;;;;;;3.30;3.00;;;;;;;9.38;100.00;100218.44;5046929;28;20227;-76
2023/12/30 00:54:58;;;;;;;2.97;2.77;;;;;;;9.36;100.00;100223.63;5042962;28;20280;-78
2023/12/30 00:57:23;;;;;;;3.13;2.93;;;;;;;9.35;100.00;100227.09;5049349;28;20193;-77
2023/12/30 00:59:48;;;;;;;3.30;3.00;;;;;;;9.36;100.00;100228.81;5049624;28;20264;-77
2023/12/30 01:02:14;;;;;;;4.47;3.20;;;;;;;9.34;100.00;100227.94;5049937;28;22006;-77
2023/12/30 01:04:39;;;;;;;3.53;3.13;;;;;;;9.32;100.00;100234.84;5052382;28;20186;-77
2023/12/30 01:07:04;;;;;;;3.70;3.23;;;;;;;9.33;100.00;100235.72;5047195;28;20186;-76
2023/12/30 01:09:30;;;;;;;3.20;2.90;;;;;;;9.33;100.00;100240.88;5052096;28;20201;-77
2023/12/30 01:11:55;;;;;;;3.87;3.20;;;;;;;9.33;100.00;100228.81;5056388;28;20303;-77
2023/12/30 01:14:20;;;;;;;4.20;3.30;;;;;;;9.35;100.00;100234.00;5052826;28;20517;-77
2023/12/30 01:16:46;;;;;;;3.70;3.40;;;;;;;9.33;100.00;100230.56;5045742;28;20231;-76
2023/12/30 01:19:11;;;;;;;3.60;3.30;;;;;;;9.32;100.00;100232.25;5046735;28;20190;-77
2023/12/30 01:21:36;;;;;;;3.50;3.20;;;;;;;9.32;100.00;100240.00;5053969;28;20233;-77
2023/12/30 01:24:02;;;;;;;3.70;3.40;;;;;;;9.32;100.00;100242.59;5049052;28;20190;-77
2023/12/30 01:26:27;;;;;;;3.40;3.10;;;;;;;9.33;100.00;100238.31;5048405;28;20754;-76
2023/12/30 01:28:53;;;;;;;3.37;2.87;;;;;;;9.33;100.00;100240.88;5045316;28;20201;-76
2023/12/30 01:31:18;;;;;;;3.57;3.27;;;;;;;9.32;100.00;100246.91;5049799;28;20678;-77
2023/12/30 01:33:44;;;;;;;3.80;3.50;;;;;;;9.30;100.00;100244.34;5053246;28;20190;-77
2023/12/30 01:36:11;;;;;;;3.57;3.23;;;;;;;9.27;100.00;100246.94;5044104;28;20713;-77
2023/12/30 01:38:36;;;;;;;3.70;2.70;;;;;;;9.24;100.00;100240.03;5049207;28;20199;-77
2023/12/30 01:41:01;;;;;;;5.17;2.80;;;;;;;9.19;100.00;100251.25;5049638;28;20574;-77
2023/12/30 01:43:29;;;;;;;3.40;3.10;;;;;;;9.19;100.00;100248.66;5043858;28;20307;-77
2023/12/30 01:46:02;;;;;;;3.90;3.50;;;;;;;9.12;100.00;100250.41;5048391;28;20186;-78
2023/12/30 01:48:29;;;;;;;5.97;3.10;;;;;;;9.09;100.00;100258.16;5044044;28;20190;-77
2023/12/30 01:50:57;;;;;;;3.47;3.13;;;;;;;9.05;100.00;100257.31;5046796;28;20243;-78
2023/12/30 01:53:24;;;;;;;3.50;3.20;;;;;;;9.05;100.00;100269.41;5046114;28;20658;-77
2023/12/30 01:55:51;;;;;;;4.37;3.10;;;;;;;8.99;100.00;100267.69;5050170;28;20225;-78
2023/12/30 01:58:18;;;;;;;3.90;3.30;;;;;;;9.00;100.00;100269.38;5050072;28;20283;-76
2023/12/30 02:00:47;;;;;;;3.97;3.57;;;;;;;9.00;100.00;100269.38;5049989;28;22180;-76
2023/12/30 02:03:12;;;;;;;3.20;2.90;;;;;;;8.98;100.00;100281.47;5047247;28;20297;-77
2023/12/30 02:05:38;;;;;;;4.10;2.90;;;;;;;8.99;100.00;100285.75;5041614;28;20178;-77
2023/12/30 02:08:04;;;;;;;4.03;3.30;;;;;;;9.00;100.00;100284.88;5045921;28;20368;-76
2023/12/30 02:10:29;;;;;;;4.20;3.47;;;;;;;8.99;100.00;100298.66;5047830;28;20197;-77
2023/12/30 02:12:54;;;;;;;3.27;2.83;;;;;;;9.00;100.00;100283.16;5045953;28;20213;-77
2023/12/30 02:15:24;;;;;;;3.37;3.07;;;;;;;8.96;100.00;100290.94;5046660;28;20213;-77
2023/12/30 02:17:51;;;;;;;3.10;2.80;;;;;;;8.96;100.00;100290.94;5046846;28;20187;-76
2023/12/30 02:20:18;;;;;;;4.20;2.50;;;;;;;8.94;100.00;100290.06;5054099;28;20201;-77
2023/12/30 02:22:47;;;;;;;3.23;2.93;;;;;;;8.93;100.00;100293.50;5046827;28;20584;-76
2023/12/30 02:25:13;;;;;;;2.73;2.50;;;;;;;8.91;100.00;100296.09;5050389;28;20296;-77
2023/12/30 02:27:38;;;;;;;3.50;2.60;;;;;;;8.93;100.00;100294.34;5047083;28;20548;-77
2023/12/30 02:30:04;;;;;;;3.00;2.57;;;;;;;8.93;100.00;100290.94;5052023;28;20189;-76
2023/12/30 02:32:30;;;;;;;3.03;2.50;;;;;;;8.88;100.00;100290.94;5050408;28;20216;-77
2023/12/30 02:34:55;;;;;;;3.10;2.80;;;;;;;8.85;100.00;100296.94;5046916;28;20205;-77
2023/12/30 02:37:20;;;;;;;4.03;2.93;;;;;;;8.85;100.00;100296.09;5051419;28;20197;-77
2023/12/30 02:39:45;;;;;;;3.10;2.77;;;;;;;8.81;100.00;100300.41;5050943;28;20190;-78
2023/12/30 02:42:11;;;;;;;3.03;2.70;;;;;;;8.79;100.00;100307.28;5046234;28;20241;-77
2023/12/30 02:44:36;;;;;;;3.73;2.77;;;;;;;8.80;100.00;100311.59;5052106;28;20593;-77
2023/12/30 02:47:02;;;;;;;3.00;2.80;;;;;;;8.77;100.00;100314.19;5047419;28;20192;-76
2023/12/30 02:49:27;;;;;;;2.90;2.60;;;;;;;8.74;100.00;100310.75;5045282;28;20647;-76
2023/12/30 02:51:53;;;;;;;3.87;2.73;;;;;;;8.76;100.00;100322.78;5049661;28;20210;-77
2023/12/30 02:54:19;;;;;;;3.47;2.47;;;;;;;8.71;100.00;100311.59;5048155;28;20316;-77
2023/12/30 02:56:44;;;;;;;2.77;2.57;;;;;;;8.73;100.00;100315.03;5043454;28;20190;-77
2023/12/30 02:59:10;;;;;;;3.10;2.80;;;;;;;8.72;100.00;100313.31;5046186;28;20230;-77
2023/12/30 03:01:37;;;;;;;3.43;2.70;;;;;;;8.69;100.00;100309.03;5049573;28;20233;-77
2023/12/30 03:04:03;;;;;;;3.30;3.00;;;;;;;8.68;100.00;100296.13;5046806;28;20186;-77
2023/12/30 03:06:28;;;;;;;3.30;2.73;;;;;;;8.68;100.00;100307.31;5051613;28;20189;-76
2023/12/30 03:08:53;;;;;;;4.53;3.30;;;;;;;8.70;100.00;100304.72;5067316;28;20205;-77
2023/12/30 03:11:19;;;;;;;2.90;2.50;;;;;;;8.66;100.00;100303.00;5055351;28;20243;-76
2023/12/30 03:13:45;;;;;;;3.57;2.57;;;;;;;8.67;100.00;100307.31;5051369;28;20191;-76
2023/12/30 03:16:11;;;;;;;4.00;2.43;;;;;;;8.63;100.00;100301.28;5053947;28;20222;-77
2023/12/30 03:18:38;;;;;;;4.40;2.83;;;;;;;8.66;100.00;100303.00;5052417;28;20225;-77
2023/12/30 03:21:07;;;;;;;2.63;2.33;;;;;;;8.65;100.00;100311.63;5056398;28;20690;-77
2023/12/30 03:23:33;;;;;;;3.73;2.70;;;;;;;8.64;100.00;100303.00;5051376;28;20207;-77
2023/12/30 03:25:58;;;;;;;4.50;2.47;;;;;;;8.59;100.00;100299.59;5049395;28;20210;-76
2023/12/30 03:28:25;;;;;;;3.07;2.63;;;;;;;8.56;100.00;100304.72;5055388;28;20229;-76
2023/12/30 03:30:51;;;;;;;3.17;2.87;;;;;;;8.58;100.00;100297.84;5053125;28;20186;-77
2023/12/30 03:33:16;;;;;;;2.60;2.37;;;;;;;8.52;100.00;100291.00;5053743;28;20308;-75
2023/12/30 03:35:41;;;;;;;2.60;2.30;;;;;;;8.48;100.00;100304.72;5050973;28;20202;-77
2023/12/30 03:38:07;;;;;;;3.80;2.50;;;;;;;8.51;100.00;100307.31;5052006;28;20189;-77
2023/12/30 03:40:32;;;;;;;2.73;2.40;;;;;;;8.57;100.00;100305.56;5052746;28;20190;-76
2023/12/30 03:42:57;;;;;;;3.00;2.70;;;;;;;8.53;100.00;100294.41;5056457;28;20263;-76
2023/12/30 03:45:23;;;;;;;2.83;2.50;;;;;;;8.50;100.00;100292.72;5050267;28;20208;-77
2023/12/30 03:47:48;;;;;;;3.23;2.90;;;;;;;8.51;100.00;100297.00;5048198;28;20644;-78
2023/12/30 03:50:13;;;;;;;3.37;2.57;;;;;;;8.52;100.00;100303.88;5045784;28;20193;-77
2023/12/30 03:52:38;;;;;;;3.20;2.60;;;;;;;8.48;100.00;100302.16;5050802;28;20228;-76
2023/12/30 03:55:04;;;;;;;3.03;2.50;;;;;;;8.48;100.00;100298.69;5056911;28;20430;-77
2023/12/30 03:57:30;;;;;;;3.10;2.80;;;;;;;8.53;100.00;100299.56;5047417;28;20197;-77
2023/12/30 03:59:55;;;;;;;3.83;2.53;;;;;;;8.54;100.00;100296.13;5048349;28;20201;-77
2023/12/30 04:02:21;;;;;;;4.27;2.87;;;;;;;8.57;100.00;100287.53;5043853;28;20792;-77
2023/12/30 04:04:49;;;;;;;2.40;2.20;;;;;;;8.50;100.00;100284.09;5049485;28;20185;-77
2023/12/30 04:07:15;;;;;;;4.03;2.47;;;;;;;8.47;100.00;100284.94;5054066;28;20621;-78
2023/12/30 04:09:40;;;;;;;2.80;2.60;;;;;;;8.49;100.00;100285.81;5048414;28;20416;-78
2023/12/30 04:12:05;;;;;;;4.03;2.70;;;;;;;8.51;100.00;100278.94;5046637;28;20229;-77
2023/12/30 04:14:31;;;;;;;3.03;2.73;;;;;;;8.51;100.00;100289.25;5054401;28;20721;-77
2023/12/30 04:16:56;;;;;;;2.77;2.40;;;;;;;8.50;100.00;100289.25;5050142;28;20205;-77
2023/12/30 04:19:23;;;;;;;3.03;2.30;;;;;;;8.48;100.00;100297.00;5044473;28;20685;-76
2023/12/30 04:21:48;;;;;;;3.10;2.60;;;;;;;8.50;100.00;100291.81;5049639;28;20210;-77
2023/12/30 04:24:14;;;;;;;3.60;2.40;;;;;;;8.48;100.00;100281.53;5053391;28;20712;-77
2023/12/30 04:26:39;;;;;;;2.47;2.20;;;;;;;8.48;100.00;100289.25;5050079;28;20197;-77
2023/12/30 04:29:04;;;;;;;2.40;2.13;;;;;;;8.45;100.00;100293.53;5054822;28;20190;-76
2023/12/30 04:31:29;;;;;;;2.43;2.10;;;;;;;8.48;100.00;100288.38;5057453;28;20766;-75
2023/12/30 04:33:55;;;;;;;4.50;2.30;;;;;;;8.46;100.00;100282.38;5053550;28;20194;-76
2023/12/30 04:36:20;;;;;;;2.40;2.20;;;;;;;8.47;100.00;100290.09;5051813;28;20209;-76
2023/12/30 04:38:45;;;;;;;2.97;2.40;;;;;;;8.45;100.00;100303.84;5053458;28;20254;-76
2023/12/30 04:41:10;;;;;;;2.30;2.00;;;;;;;8.48;100.00;100306.44;5055780;28;20247;-77
2023/12/30 04:43:36;;;;;;;2.10;1.90;;;;;;;8.49;100.00;100305.59;5053920;28;22093;-76
2023/12/30 04:46:02;;;;;;;2.60;1.70;;;;;;;8.53;100.00;100310.75;5046285;28;20273;-77
2023/12/30 04:48:27;;;;;;;2.67;2.20;;;;;;;8.54;100.00;100315.06;5050743;28;20221;-76
2023/12/30 04:50:53;;;;;;;2.53;1.80;;;;;;;8.58;100.00;100315.03;5056170;28;20612;-77
2023/12/30 04:53:18;;;;;;;3.77;1.87;;;;;;;8.62;100.00;100312.44;5056353;28;20249;-78
2023/12/30 04:55:44;;;;;;;2.03;1.50;;;;;;;8.63;100.00;100310.75;5053479;28;20218;-77
2023/12/30 04:58:09;;;;;;;3.30;1.73;;;;;;;8.64;100.00;100317.63;5052300;28;20861;-76
2023/12/30 05:00:34;;;;;;;3.17;1.70;;;;;;;8.62;100.00;100317.63;5045995;28;20193;-77
2023/12/30 05:03:00;;;;;;;2.67;1.97;;;;;;;8.66;100.00;100311.59;5048623;28;20346;-77
2023/12/30 05:05:25;;;;;;;2.87;1.70;;;;;;;8.65;100.00;100314.19;5048364;28;20250;-77
2023/12/30 05:07:50;;;;;;;1.97;1.50;;;;;;;8.64;100.00;100313.31;5049084;28;20190;-76
2023/12/30 05:10:16;;;;;;;2.20;1.57;;;;;;;8.64;100.00;100321.06;5047070;28;20240;-76
2023/12/30 05:12:41;;;;;;;2.40;1.47;;;;;;;8.64;100.00;100310.72;5047521;28;20202;-76
2023/12/30 05:15:07;;;;;;;1.60;1.20;;;;;;;8.65;100.00;100315.03;5052864;28;20204;-76
2023/12/30 05:17:32;;;;;;;1.53;1.23;;;;;;;8.66;100.00;100315.91;5044568;28;20200;-77
2023/12/30 05:19:59;;;;;;;2.17;1.70;;;;;;;8.64;100.00;100326.22;5045152;28;20301;-77
2023/12/30 05:22:24;;;;;;;1.87;1.30;;;;;;;8.66;100.00;100323.66;5046959;28;20663;-76
2023/12/30 05:24:49;;;;;;;1.80;1.63;;;;;;;8.62;100.00;100329.66;5047111;28;20199;-77
2023/12/30 05:27:15;;;;;;;2.60;1.50;;;;;;;8.61;100.00;100327.94;5052162;28;20192;-77
2023/12/30 05:29:40;;;;;;;1.90;1.50;;;;;;;8.62;100.00;100320.19;5050520;28;20195;-76
2023/12/30 05:32:05;;;;;;;1.97;1.40;;;;;;;8.59;100.00;100332.25;5047930;28;20694;-76
2023/12/30 05:34:31;;;;;;;1.60;1.50;;;;;;;8.60;100.00;100333.97;5044375;28;20197;-77
2023/12/30 05:36:56;;;;;;;3.77;1.90;;;;;;;8.61;100.00;100336.56;5051022;28;20197;-77
2023/12/30 05:39:21;;;;;;;1.87;1.50;;;;;;;8.50;100.00;100336.56;5052495;28;20673;-77
2023/12/30 05:41:47;;;;;;;3.73;1.90;;;;;;;8.42;100.00;100330.47;5050809;28;20201;-76
2023/12/30 05:44:12;;;;;;;2.53;1.67;;;;;;;8.35;100.00;100324.47;5051867;28;20289;-76
2023/12/30 05:46:37;;;;;;;1.70;1.60;;;;;;;8.28;100.00;100321.88;5044492;28;20178;-76
2023/12/30 05:49:03;;;;;;;3.77;2.07;;;;;;;8.27;100.00;100325.31;5047575;28;20189;-76
2023/12/30 05:51:28;;;;;;;2.67;2.00;;;;;;;8.23;100.00;100332.19;5051766;28;20212;-77
2023/12/30 05:53:53;;;;;;;3.10;2.33;;;;;;;8.21;100.00;100339.06;5045577;28;20277;-76
2023/12/30 05:56:23;;;;;;;2.67;2.43;;;;;;;8.17;100.00;100334.75;5048663;28;20216;-77
2023/12/30 05:58:49;;;;;;;3.23;2.63;;;;;;;8.15;100.00;100329.59;5046307;28;20205;-78
2023/12/30 06:01:14;;;;;;;3.47;2.20;;;;;;;8.08;100.00;100328.72;5042249;28;20189;-76
2023/12/30 06:03:40;;;;;;;4.20;2.50;;;;;;;8.07;100.00;100336.47;5046174;28;20197;-76
2023/12/30 06:06:05;;;;;;;3.27;2.40;;;;;;;8.11;100.00;100332.19;5044164;28;20240;-76
2023/12/30 06:08:31;;;;;;;3.00;2.70;;;;;;;8.11;100.00;100332.19;5041450;28;20198;-77
2023/12/30 06:10:57;;;;;;;4.63;2.87;;;;;;;8.16;100.00;100335.63;5046427;28;20200;-77
2023/12/30 06:13:22;;;;;;;3.50;2.50;;;;;;;8.18;100.00;100345.06;5045913;28;21021;-77
2023/12/30 06:15:49;;;;;;;3.53;2.87;;;;;;;8.25;100.00;100335.63;5051401;28;20291;-77
2023/12/30 06:18:14;;;;;;;3.53;2.87;;;;;;;8.23;100.00;100347.66;5044670;28;20217;-77
2023/12/30 06:20:40;;;;;;;3.40;2.67;;;;;;;8.27;100.00;100358.81;5046048;28;20731;-77
2023/12/30 06:23:05;;;;;;;3.13;2.83;;;;;;;8.29;100.00;100354.53;5048435;28;20210;-76
2023/12/30 06:25:32;;;;;;;3.50;2.50;;;;;;;8.30;100.00;100357.13;5046936;28;20196;-76
2023/12/30 06:27:58;;;;;;;3.97;3.20;;;;;;;8.33;100.00;100357.13;5049022;28;20296;-76
2023/12/30 06:30:23;;;;;;;3.27;2.80;;;;;;;8.37;100.00;100353.69;5046163;28;20800;-77
2023/12/30 06:32:48;;;;;;;3.60;2.70;;;;;;;8.31;100.00;100350.25;5054486;28;20207;-76
2023/12/30 06:35:14;;;;;;;3.63;2.90;;;;;;;8.29;100.00;100359.69;5048026;28;20217;-77
2023/12/30 06:37:39;;;;;;;3.20;2.90;;;;;;;8.23;100.00;100369.16;5043403;28;20771;-77
2023/12/30 06:40:05;;;;;;;5.57;3.57;;;;;;;8.18;100.00;100367.41;5042246;28;20198;-77
2023/12/30 06:42:30;;;;;;;3.77;3.07;;;;;;;8.17;100.00;100369.13;5045743;28;20897;-76
2023/12/30 06:44:56;;;;;;;7.27;3.60;;;;;;;8.19;100.00;100384.59;5055817;28;20219;-75
2023/12/30 06:47:21;;;;;;;5.57;3.43;;;;;;;8.22;100.00;100382.91;5056205;28;20592;-77
2023/12/30 06:49:46;;;;;;;3.80;3.17;;;;;;;8.23;100.00;100387.22;5069905;28;20190;-76
2023/12/30 06:52:12;;;;;;;6.07;4.03;;;;;;;8.27;100.00;100393.22;5055100;28;20206;-77
2023/12/30 06:54:37;;;;;;;5.57;3.33;;;;;;;8.33;100.00;100397.53;5054942;28;20574;-77
2023/12/30 06:57:02;;;;;;;3.50;2.90;;;;;;;8.30;100.00;100410.41;5049848;28;20180;-77
2023/12/30 06:59:28;;;;;;;4.17;2.83;;;;;;;8.31;100.00;100405.28;5059072;28;20190;-76
2023/12/30 07:01:53;;;;;;;3.63;3.17;;;;;;;8.36;100.00;100407.84;5053105;28;20236;-77
2023/12/30 07:04:18;;;;;;;5.67;3.57;;;;;;;8.41;100.00;100406.13;5050096;28;20272;-76
2023/12/30 07:06:44;;;;;;;3.37;3.07;;;;;;;8.43;100.00;100404.41;5051896;28;20183;-77
2023/12/30 07:09:09;;;;;;;3.87;3.13;;;;;;;8.46;100.00;100406.16;5050326;28;20567;-75
2023/12/30 07:11:35;;;;;;;4.57;3.37;;;;;;;8.48;100.00;100396.72;5048607;28;20214;-76
2023/12/30 07:14:00;;;;;;;3.80;3.30;;;;;;;8.46;100.00;100404.44;5046566;28;20255;-77
2023/12/30 07:16:25;;;;;;;3.60;3.30;;;;;;;8.44;100.00;100400.97;5058436;28;20214;-76
2023/12/30 07:18:50;;;;;;;4.30;3.50;;;;;;;8.41;100.00;100402.69;5059006;28;20202;-76
2023/12/30 07:21:16;;;;;;;3.40;3.10;;;;;;;8.33;100.00;100402.69;5055112;28;20629;-75
2023/12/30 07:23:41;;;;;;;5.37;3.57;;;;;;;8.28;100.00;100399.22;5054624;28;20187;-77
2023/12/30 07:26:07;;;;;;;5.60;3.83;;;;;;;8.22;100.00;100398.38;5047591;28;20190;-77
2023/12/30 07:28:32;;;;;;;4.57;4.03;;;;;;;8.15;100.00;100395.78;5057488;28;20182;-77
2023/12/30 07:30:57;;;;;;;6.80;3.90;;;;;;;8.13;100.00;100397.47;5053360;28;20270;-76
2023/12/30 07:33:23;;;;;;;4.00;3.60;;;;;;;8.11;100.00;100404.34;5052455;28;20205;-76
2023/12/30 07:35:48;;;;;;;4.57;3.57;;;;;;;8.12;100.00;100401.75;5055060;28;20214;-77
2023/12/30 07:38:13;;;;;;;4.20;3.80;;;;;;;8.13;100.00;100406.06;5054385;28;20186;-77
2023/12/30 07:40:39;;;;;;;4.93;3.50;;;;;;;8.16;100.00;100407.81;5049467;28;20193;-77
2023/12/30 07:43:04;;;;;;;5.10;3.20;;;;;;;8.15;100.00;100409.50;5054198;28;20239;-76
2023/12/30 07:45:29;;;;;;;5.20;3.03;;;;;;;8.11;100.00;100407.78;5053681;28;20192;-76
2023/12/30 07:47:55;;;;;;;4.10;3.13;;;;;;;8.15;100.00;100411.25;5055447;28;20194;-77
2023/12/30 07:50:21;;;;;;;4.47;3.43;;;;;;;8.21;100.00;100409.53;5053481;28;20221;-76
2023/12/30 07:52:47;;;;;;;3.30;3.00;;;;;;;8.17;100.00;100412.09;5053875;28;20720;-76
2023/12/30 07:55:12;;;;;;;5.27;3.47;;;;;;;8.21;100.00;100414.69;5059049;28;20296;-76
2023/12/30 07:57:37;;;;;;;4.90;3.90;;;;;;;8.29;100.00;100416.41;5053891;28;20182;-76
2023/12/30 08:00:04;;;;;;;4.03;3.60;;;;;;;8.37;100.00;100412.16;5054410;28;20198;-76
2023/12/30 08:02:29;;;;;;;4.00;3.60;;;;;;;8.45;100.00;100425.06;5047436;28;20713;-76
2023/12/30 08:04:57;;;;;;;5.63;3.60;;;;;;;8.48;100.00;100414.75;5051073;28;20186;-78
2023/12/30 08:07:23;;;;;;;4.03;3.37;;;;;;;8.52;100.00;100417.38;5054655;28;20281;-78
2023/12/30 08:09:48;;;;;;;4.00;3.60;;;;;;;8.60;100.00;100419.97;5048210;28;20285;-77
2023/12/30 08:12:17;;;;;;;4.30;3.43;;;;;;;8.64;100.00;100425.97;5050152;28;20295;-77
2023/12/30 08:14:42;;;;;;;3.87;3.13;;;;;;;8.66;100.00;100430.28;5049727;28;20218;-77
2023/12/30 08:17:07;;;;;;;4.73;3.20;;;;;;;8.71;100.00;100421.69;5050108;28;20212;-77
2023/12/30 08:19:33;;;;;;;4.67;3.40;;;;;;;8.73;100.00;100430.28;5055462;28;20252;-77
2023/12/30 08:21:58;;;;;;;4.23;3.13;;;;;;;8.72;100.00;100429.41;5052571;28;20314;-76
2023/12/30 08:24:23;;;;;;;3.37;3.07;;;;;;;8.76;100.00;100428.56;5051775;28;20698;-76
2023/12/30 08:26:49;;;;;;;3.20;2.90;;;;;;;8.81;100.00;100432.03;5055601;28;20190;-77
2023/12/30 08:29:15;;;;;;;3.10;2.80;;;;;;;8.87;100.00;100420.84;5057181;28;20189;-78
2023/12/30 08:31:45;;;;;;;3.53;3.20;;;;;;;8.92;100.00;100423.41;5052588;28;20217;-76
2023/12/30 08:34:21;;;;;;;6.13;3.23;;;;;;;9.00;100.00;100417.41;5047851;28;20183;-77
2023/12/30 08:36:46;;;;;;;3.40;3.10;;;;;;;9.05;100.00;100426.88;5056530;28;20213;-76
2023/12/30 08:39:12;;;;;;;3.80;3.33;;;;;;;9.09;100.00;100425.97;5048512;28;20198;-77
2023/12/30 08:41:38;;;;;;;3.40;3.10;;;;;;;9.13;100.00;100428.59;5051328;28;20635;-76
2023/12/30 08:44:03;;;;;;;4.03;3.00;;;;;;;9.21;100.00;100425.13;5050933;28;20235;-77
2023/12/30 08:46:28;;;;;;;4.30;3.20;;;;;;;9.23;100.00;100423.41;5049969;28;20186;-77
2023/12/30 08:48:54;;;;;;;4.33;3.30;;;;;;;9.25;100.00;100421.69;5047863;28;20182;-77
2023/12/30 08:51:19;;;;;;;5.47;3.80;;;;;;;9.27;100.00;100428.56;5049965;28;20566;-77
2023/12/30 08:53:44;;;;;;;4.47;3.47;;;;;;;9.31;100.00;100426.81;5047299;28;20245;-76
2023/12/30 08:56:10;;;;;;;3.67;3.30;;;;;;;9.33;100.00;100419.94;5048777;28;20216;-76
2023/12/30 08:58:35;;;;;;;5.17;4.30;;;;;;;9.37;100.00;100420.81;5052058;28;20198;-77
2023/12/30 09:01:00;;;;;;;4.63;4.20;;;;;;;9.34;100.00;100410.47;5047949;28;20870;-77
2023/12/30 09:03:26;;;;;;;5.30;4.40;;;;;;;9.36;100.00;100412.19;5049984;28;20225;-77
2023/12/30 09:05:51;;;;;;;5.57;3.90;;;;;;;9.39;100.00;100406.13;5052486;28;20183;-76
2023/12/30 09:08:18;;;;;;;4.83;4.30;;;;;;;9.39;100.00;100413.88;5058651;28;20654;-77
2023/12/30 09:10:44;;;;;;;6.10;5.50;;;;;;;9.39;100.00;100414.78;5052772;28;20229;-76
2023/12/30 09:13:09;;;;;;;4.63;3.73;;;;;;;9.43;100.00;100424.25;5051017;28;20596;-78
2023/12/30 09:15:34;;;;;;;3.50;3.10;;;;;;;9.43;100.00;100415.63;5047918;28;20598;-76
2023/12/30 09:18:00;;;;;;;3.20;2.90;;;;;;;9.42;100.00;100417.34;5049154;28;20190;-77
2023/12/30 09:20:25;;;;;;;4.00;3.00;;;;;;;9.44;100.00;100420.78;5064467;28;20194;-77
2023/12/30 09:22:51;;;;;;;3.80;2.87;;;;;;;9.43;100.00;100411.31;5050797;28;21002;-77
2023/12/30 09:25:17;;;;;;;4.37;3.00;;;;;;;9.49;100.00;100425.06;5056956;28;20202;-76
2023/12/30 09:27:42;;;;;;;3.70;2.80;;;;;;;9.51;100.00;100426.81;5054068;28;20206;-78
2023/12/30 09:30:08;;;;;;;3.37;2.40;;;;;;;9.54;100.00;100428.50;5057051;28;20235;-77
2023/12/30 09:32:33;;;;;;;4.27;2.60;;;;;;;9.52;100.00;100435.41;5048952;28;20271;-78
2023/12/30 09:35:01;;;;;;;4.40;2.60;;;;;;;9.57;100.00;100428.50;5049426;28;20226;-76
2023/12/30 09:37:27;;;;;;;3.40;2.73;;;;;;;9.63;100.00;100428.47;5053679;28;20270;-77
2023/12/30 09:39:53;;;;;;;2.93;2.40;;;;;;;9.67;100.00;100419.00;5051727;28;20293;-76
2023/12/30 09:42:19;;;;;;;2.80;2.37;;;;;;;9.71;100.00;100421.56;5053992;28;20229;-76
2023/12/30 09:44:46;;;;;;;4.00;2.43;;;;;;;9.74;100.00;100429.31;5051006;28;20741;-76
2023/12/30 09:47:12;;;;;;;3.13;2.53;;;;;;;9.81;100.00;100431.88;5048956;28;20358;-77
2023/12/30 09:49:39;;;;;;;3.03;2.50;;;;;;;9.84;100.00;100431.88;5054773;28;20399;-77
2023/12/30 09:52:06;;;;;;;3.00;2.00;;;;;;;9.89;100.00;100430.13;5051951;28;20230;-77
2023/12/30 09:54:35;;;;;;;2.20;1.97;;;;;;;9.87;100.00;100432.72;5054018;28;20194;-76
2023/12/30 09:57:02;;;;;;;2.73;1.97;;;;;;;9.85;100.00;100426.69;5054669;28;20608;-76
2023/12/30 09:59:30;;;;;;;3.20;2.10;;;;;;;9.85;100.00;100431.84;5056935;28;20206;-76
2023/12/30 10:01:56;;;;;;;3.73;1.90;;;;;;;9.82;100.00;100433.59;5054994;28;20213;-76
2023/12/30 10:04:22;;;;;;;4.43;2.23;;;;;;;9.83;100.00;100430.16;5059402;28;20205;-76
2023/12/30 10:06:49;;;;;;;2.20;1.70;;;;;;;9.82;100.00;100434.47;5056730;28;20191;-76
2023/12/30 10:09:15;;;;;;;2.80;1.80;;;;;;;9.83;100.00;100436.16;5054247;28;20328;-76
2023/12/30 10:11:43;;;;;;;2.07;1.70;;;;;;;9.85;100.00;100431.00;5058873;28;20296;-76
2023/12/30 10:14:09;;;;;;;1.97;1.40;;;;;;;9.86;100.00;100428.41;5060411;28;20189;-77
2023/12/30 10:16:35;;;;;;;2.07;1.50;;;;;;;9.86;100.00;100431.00;5058143;28;20209;-76
2023/12/30 10:19:00;;;;;;;3.03;1.57;;;;;;;9.91;100.00;100424.09;5067017;28;20190;-75
2023/12/30 10:21:26;;;;;;;2.53;1.60;;;;;;;9.93;100.00;100429.22;5059435;28;20200;-77
2023/12/30 10:23:53;;;;;;;2.03;1.50;;;;;;;9.99;100.00;100420.59;5056533;28;20191;-79
2023/12/30 10:26:21;;;;;;;2.17;1.40;;;;;;;10.02;100.00;100418.00;5054003;28;20252;-78
2023/12/30 10:28:46;;;;;;;1.67;1.30;;;;;;;10.09;100.00;100416.25;5054306;28;20741;-77
2023/12/30 10:31:16;;;;;;;2.67;1.33;;;;;;;10.14;100.00;100419.69;5057007;28;20187;-78
2023/12/30 10:33:42;;;;;;;2.37;1.60;;;;;;;10.15;100.00;100414.47;5055129;28;20230;-78
2023/12/30 10:36:08;;;;;;;2.87;2.03;;;;;;;10.27;100.00;100404.97;5063999;28;20215;-79
2023/12/30 10:38:35;;;;;;;1.70;1.53;;;;;;;10.32;100.00;100406.66;5059762;28;20193;-76
2023/12/30 10:41:00;;;;;;;1.63;1.33;;;;;;;10.39;100.00;100409.22;5058592;28;20193;-76
2023/12/30 10:43:26;;;;;;;2.57;1.30;;;;;;;10.46;100.00;100409.16;5058493;28;20210;-75
2023/12/30 10:46:01;;;;;;;2.13;1.30;;;;;;;10.50;100.00;100410.88;5062187;28;20197;-78
2023/12/30 10:48:43;;;;;;;2.20;1.37;;;;;;;10.57;100.00;100406.50;5050892;28;20210;-76
2023/12/30 10:51:11;;;;;;;3.50;1.20;;;;;;;10.59;100.00;100409.94;5054312;28;20190;-76
2023/12/30 10:53:39;;;;;;;1.80;1.43;;;;;;;10.64;100.00;100417.66;5057202;28;20214;-77
2023/12/30 10:56:08;;;;;;;2.60;1.20;;;;;;;10.67;100.00;100412.47;5056567;28;20225;-77
2023/12/30 10:58:35;;;;;;;1.83;1.23;;;;;;;10.70;100.00;100419.34;5054235;28;20202;-76
2023/12/30 11:01:02;;;;;;;1.77;1.40;;;;;;;10.75;100.00;100420.19;5053060;28;20191;-77
2023/12/30 11:03:31;;;;;;;2.50;1.03;;;;;;;10.74;100.00;100415.88;5056628;28;20324;-76
2023/12/30 11:06:18;;;;;;;1.50;0.90;;;;;;;10.75;100.00;100415.00;5056871;28;20191;-76
2023/12/30 11:08:44;;;;;;;1.27;0.80;;;;;;;10.78;100.00;100412.41;5059010;28;20204;-76
2023/12/30 11:11:12;;;;;;;2.17;0.90;;;;;;;10.79;100.00;100409.78;5051325;28;20531;-76
2023/12/30 11:13:41;;;;;;;1.60;1.10;;;;;;;10.81;100.00;100404.63;5050735;28;20210;-77
2023/12/30 11:16:18;;;;;;;1.90;1.10;;;;;;;10.86;100.00;100412.34;5053611;28;20215;-76
2023/12/30 11:18:45;;;;;;;2.60;1.20;;;;;;;10.88;100.00;100408.03;5060436;28;20186;-79